Time;durP1;ratioP1;P1;durP2;ratioP2;P2;SDS_P1;SDS_P2;PMS_P1;PMS_P2;Temp;Humidity;BMP_temperature;BMP_pressure;BME280_temperature;BME280_humidity;BME280_pressure;Samples;Min_cycle;Max_cycle;Signal;HPM_P1;HPM_P2
2023/11/01 00:02:19;;;;;;;7.40;2.65;;;;;;;17.44;53.69;94654.72;5044463;28;20033;-78
2023/11/01 00:04:45;;;;;;;5.90;2.22;;;;;;;17.44;54.07;94651.19;5060739;28;20029;-78
2023/11/01 00:07:10;;;;;;;7.97;2.63;;;;;;;17.46;53.80;94643.88;5043237;28;20555;-78
2023/11/01 00:09:35;;;;;;;8.90;2.35;;;;;;;17.46;53.87;94660.56;5060470;28;20029;-78
2023/11/01 00:12:01;;;;;;;6.70;2.72;;;;;;;17.43;54.00;94671.88;5060054;28;20472;-78
2023/11/01 00:14:27;;;;;;;5.15;2.47;;;;;;;17.43;54.48;94678.22;5043192;28;20029;-79
2023/11/01 00:16:52;;;;;;;7.47;2.75;;;;;;;17.25;54.32;94684.78;5043669;28;20040;-78
2023/11/01 00:19:18;;;;;;;8.45;3.10;;;;;;;17.19;54.27;94697.84;5059179;28;20186;-80
2023/11/01 00:21:43;;;;;;;6.07;2.83;;;;;;;17.15;55.20;94713.22;5060687;28;20040;-78
2023/11/01 00:24:09;;;;;;;6.00;2.72;;;;;;;17.14;56.17;94701.31;5044174;28;20104;-78
2023/11/01 00:26:34;;;;;;;8.38;3.10;;;;;;;17.07;57.07;94707.28;5060725;28;20056;-78
2023/11/01 00:28:59;;;;;;;7.88;2.60;;;;;;;17.06;57.76;94718.91;5042849;28;20061;-79
2023/11/01 00:31:25;;;;;;;7.72;3.42;;;;;;;17.05;57.95;94717.38;5060116;28;20024;-78
2023/11/01 00:33:50;;;;;;;6.90;2.90;;;;;;;16.92;58.35;94695.50;5061953;28;20373;-80
2023/11/01 00:36:16;;;;;;;5.30;2.80;;;;;;;16.93;59.04;94689.44;5046605;28;20036;-80
2023/11/01 00:38:41;;;;;;;6.32;2.78;;;;;;;16.90;58.66;94693.19;5047708;28;20029;-78
2023/11/01 00:41:07;;;;;;;6.65;2.65;;;;;;;16.87;59.20;94701.72;5062604;28;20090;-78
2023/11/01 00:43:33;;;;;;;5.43;2.70;;;;;;;16.80;59.41;94691.00;5047792;28;20037;-78
2023/11/01 00:45:58;;;;;;;6.80;2.63;;;;;;;16.75;59.77;94681.38;5032071;28;20026;-78
2023/11/01 00:48:24;;;;;;;5.35;2.30;;;;;;;16.72;59.13;94669.22;5007615;28;20026;-79
2023/11/01 00:50:49;;;;;;;6.03;2.78;;;;;;;16.73;59.44;94689.41;5038053;28;20036;-80
2023/11/01 00:53:14;;;;;;;5.90;2.50;;;;;;;16.60;59.82;94703.59;5043609;28;20559;-79
2023/11/01 00:55:40;;;;;;;7.60;2.80;;;;;;;16.57;60.18;94720.41;5044199;28;20028;-79
2023/11/01 00:58:05;;;;;;;5.53;2.78;;;;;;;16.55;60.33;94707.03;5042744;28;20493;-77
2023/11/01 01:00:31;;;;;;;7.72;2.40;;;;;;;16.47;60.14;94708.69;5027650;28;20041;-78
2023/11/01 01:02:56;;;;;;;7.03;2.80;;;;;;;16.42;60.85;94692.72;5009402;28;20026;-77
2023/11/01 01:05:23;;;;;;;5.15;2.33;;;;;;;16.42;61.27;94692.72;5028888;28;20112;-79
2023/11/01 01:07:49;;;;;;;7.18;3.08;;;;;;;16.41;61.61;94705.81;5043059;28;20025;-79
2023/11/01 01:10:15;;;;;;;7.57;3.35;;;;;;;16.42;61.17;94704.56;5010238;28;20384;-78
2023/11/01 01:12:40;;;;;;;6.53;2.70;;;;;;;16.39;61.44;94702.00;5026812;28;20095;-78
2023/11/01 01:15:06;;;;;;;7.72;2.83;;;;;;;16.31;60.96;94690.53;5025948;28;20044;-78
2023/11/01 01:17:31;;;;;;;5.35;3.15;;;;;;;16.25;60.82;94689.69;5043776;28;20466;-79
2023/11/01 01:19:57;;;;;;;7.50;2.47;;;;;;;16.22;60.96;94689.84;5025262;28;20053;-78
2023/11/01 01:22:22;;;;;;;7.47;3.25;;;;;;;16.20;60.61;94677.25;5043870;28;20025;-79
2023/11/01 01:24:48;;;;;;;7.88;2.70;;;;;;;16.19;60.88;94680.50;5042412;28;20026;-78
2023/11/01 01:27:13;;;;;;;6.18;2.40;;;;;;;16.17;60.79;94692.09;5026505;28;20052;-79
2023/11/01 01:29:39;;;;;;;6.18;3.03;;;;;;;16.09;61.42;94679.84;5027718;28;20022;-77
2023/11/01 01:32:05;;;;;;;5.55;2.65;;;;;;;16.10;61.28;94680.59;5042711;28;20504;-78
2023/11/01 01:34:30;;;;;;;8.02;2.80;;;;;;;16.02;61.58;94674.69;5043369;28;20017;-78
2023/11/01 01:36:56;;;;;;;9.45;2.78;;;;;;;16.03;60.97;94669.91;5025582;28;20040;-77
2023/11/01 01:39:21;;;;;;;10.02;3.33;;;;;;;16.05;61.17;94681.25;5026597;28;20112;-79
2023/11/01 01:41:47;;;;;;;5.65;2.50;;;;;;;16.04;60.86;94674.97;5025068;28;20125;-79
2023/11/01 01:44:13;;;;;;;5.65;2.55;;;;;;;15.99;61.98;94694.28;5043075;28;20112;-79
2023/11/01 01:46:39;;;;;;;4.68;2.42;;;;;;;15.90;61.72;94693.13;5041500;28;20022;-77
2023/11/01 01:49:05;;;;;;;6.45;2.60;;;;;;;15.85;62.15;94696.56;5042758;28;20030;-77
2023/11/01 01:51:30;;;;;;;7.15;2.55;;;;;;;15.83;62.74;94696.28;5026041;28;20449;-77
2023/11/01 01:53:56;;;;;;;7.60;2.80;;;;;;;15.79;62.86;94692.94;5042270;28;20367;-77
2023/11/01 01:56:22;;;;;;;6.07;2.78;;;;;;;15.79;63.06;94683.84;5026253;28;20030;-78
2023/11/01 01:58:50;;;;;;;4.88;2.53;;;;;;;15.73;63.75;94681.00;5041823;28;20025;-79
2023/11/01 02:01:17;;;;;;;5.63;2.67;;;;;;;15.76;63.41;94676.47;5042250;28;20440;-79
2023/11/01 02:03:42;;;;;;;5.18;2.80;;;;;;;15.73;63.80;94685.75;5041733;28;20037;-79
2023/11/01 02:06:08;;;;;;;4.47;2.70;;;;;;;15.73;63.97;94686.53;5025805;28;20033;-80
2023/11/01 02:08:33;;;;;;;9.07;2.50;;;;;;;15.66;63.92;94684.91;5008881;28;20060;-80
2023/11/01 02:10:59;;;;;;;7.43;3.22;;;;;;;15.72;63.70;94692.56;5025497;28;20025;-79
2023/11/01 02:13:24;;;;;;;6.75;3.30;;;;;;;15.72;63.37;94692.56;5041941;28;20112;-78
2023/11/01 02:15:50;;;;;;;6.40;2.92;;;;;;;15.66;63.91;94695.97;5024598;28;20029;-79
2023/11/01 02:18:15;;;;;;;4.78;2.33;;;;;;;15.65;63.66;94690.91;5025753;28;20057;-77
2023/11/01 02:20:47;;;;;;;6.15;2.50;;;;;;;15.67;64.08;94699.53;5040883;28;20033;-79
2023/11/01 02:23:16;;;;;;;5.80;2.58;;;;;;;15.65;64.41;94694.47;5025646;28;20128;-79
2023/11/01 02:25:43;;;;;;;7.80;2.60;;;;;;;15.56;64.87;94696.50;5041552;28;20029;-78
2023/11/01 02:28:10;;;;;;;5.32;2.67;;;;;;;15.63;64.86;94702.47;5025317;28;20029;-77
2023/11/01 02:30:35;;;;;;;6.28;2.95;;;;;;;15.52;64.78;94688.38;5025378;28;20026;-79
2023/11/01 02:33:01;;;;;;;7.40;2.80;;;;;;;15.59;64.65;94701.09;5024770;28;20385;-79
2023/11/01 02:35:26;;;;;;;9.02;3.50;;;;;;;15.60;64.62;94702.63;5025326;28;20401;-79
2023/11/01 02:37:52;;;;;;;6.57;3.55;;;;;;;15.61;64.72;94701.41;5024115;28;20025;-79
2023/11/01 02:40:18;;;;;;;6.22;2.80;;;;;;;15.59;64.77;94698.31;5025400;28;20494;-79
2023/11/01 02:42:45;;;;;;;6.63;2.72;;;;;;;15.61;64.49;94709.69;5041000;28;20215;-79
2023/11/01 02:45:11;;;;;;;7.00;3.25;;;;;;;15.52;64.93;94701.47;5029402;28;20491;-79
2023/11/01 02:47:41;;;;;;;6.80;3.28;;;;;;;15.54;65.24;94710.84;5044448;28;20029;-79
2023/11/01 02:50:13;;;;;;;6.57;2.75;;;;;;;15.55;65.53;94708.84;5061167;28;20107;-80
2023/11/01 02:52:38;;;;;;;4.70;2.75;;;;;;;15.57;65.82;94712.66;5061821;28;20114;-79
2023/11/01 02:55:08;;;;;;;5.68;3.03;;;;;;;15.54;66.19;94705.31;5043832;28;20068;-80
2023/11/01 02:57:33;;;;;;;5.15;3.15;;;;;;;15.56;66.19;94708.34;5044435;28;20029;-77
2023/11/01 02:59:59;;;;;;;6.00;2.80;;;;;;;15.52;66.04;94707.75;5043957;28;20036;-79
2023/11/01 03:02:25;;;;;;;6.82;3.03;;;;;;;15.53;65.60;94712.06;5061385;28;20402;-79
2023/11/01 03:04:50;;;;;;;5.25;2.90;;;;;;;15.56;65.71;94713.13;5061082;28;20036;-78
2023/11/01 03:07:16;;;;;;;5.82;2.90;;;;;;;15.52;65.75;94721.63;5045982;28;20036;-79
2023/11/01 03:09:41;;;;;;;6.85;2.80;;;;;;;15.52;65.67;94724.38;5061462;28;20109;-77
2023/11/01 03:12:07;;;;;;;8.30;2.80;;;;;;;15.51;66.26;94722.84;5043577;28;20141;-77
2023/11/01 03:14:32;;;;;;;6.07;3.03;;;;;;;15.53;65.90;94728.69;5045957;28;20033;-78
2023/11/01 03:16:58;;;;;;;7.85;3.33;;;;;;;15.51;66.25;94738.72;5044799;28;20028;-78
2023/11/01 03:19:23;;;;;;;6.43;3.45;;;;;;;15.51;66.26;94733.94;5045946;28;20581;-77
2023/11/01 03:21:48;;;;;;;8.10;3.50;;;;;;;15.56;66.02;94741.59;5027051;28;20036;-78
2023/11/01 03:24:14;;;;;;;5.78;2.90;;;;;;;15.50;65.47;94743.50;5061125;28;20035;-78
2023/11/01 03:26:40;;;;;;;6.25;2.90;;;;;;;15.52;66.13;94743.00;5060631;28;20469;-79
2023/11/01 03:29:06;;;;;;;6.03;3.03;;;;;;;15.49;66.45;94733.66;5060500;28;20086;-79
2023/11/01 03:31:31;;;;;;;4.38;3.35;;;;;;;15.47;66.52;94722.28;5061062;28;20103;-79
2023/11/01 03:33:56;;;;;;;6.47;2.88;;;;;;;15.44;65.57;94716.94;5059945;28;20017;-78
2023/11/01 03:36:22;;;;;;;6.03;2.78;;;;;;;15.45;65.71;94722.00;5061410;28;20107;-78
2023/11/01 03:38:47;;;;;;;6.38;2.80;;;;;;;15.41;66.15;94724.16;5044649;28;20033;-79
2023/11/01 03:41:13;;;;;;;6.00;2.88;;;;;;;15.38;66.32;94714.81;5027662;28;20041;-79
2023/11/01 03:43:38;;;;;;;4.88;3.45;;;;;;;15.37;66.09;94720.84;5060105;28;20021;-79
2023/11/01 03:46:05;;;;;;;6.10;3.08;;;;;;;15.32;66.28;94716.72;5049143;28;20030;-79
2023/11/01 03:48:30;;;;;;;6.20;3.35;;;;;;;15.26;66.20;94712.28;5025519;28;20104;-79
2023/11/01 03:50:56;;;;;;;5.72;3.40;;;;;;;15.25;66.08;94721.81;5023283;28;20483;-79
2023/11/01 03:53:21;;;;;;;5.20;3.25;;;;;;;15.24;66.26;94723.06;5041276;28;20033;-79
2023/11/01 03:55:46;;;;;;;7.68;3.15;;;;;;;15.13;66.44;94721.59;5024373;28;20036;-79
2023/11/01 03:58:12;;;;;;;6.25;3.28;;;;;;;15.14;66.63;94717.59;5024580;28;20028;-78
2023/11/01 04:00:37;;;;;;;7.60;3.60;;;;;;;15.09;66.73;94720.25;5024317;28;20810;-78
2023/11/01 04:03:03;;;;;;;5.57;3.30;;;;;;;15.06;66.96;94726.72;5040916;28;20021;-78
2023/11/01 04:05:28;;;;;;;6.30;3.45;;;;;;;15.02;66.90;94734.44;5023566;28;20036;-79
2023/11/01 04:07:53;;;;;;;9.40;4.35;;;;;;;14.95;67.09;94732.00;5040364;28;20026;-78
2023/11/01 04:10:19;;;;;;;6.30;3.80;;;;;;;14.93;66.65;94734.50;5044899;28;20493;-78
2023/11/01 04:12:45;;;;;;;6.05;3.63;;;;;;;14.89;67.13;94731.91;5043403;28;20033;-78
2023/11/01 04:15:12;;;;;;;7.00;3.60;;;;;;;14.82;66.55;94737.78;5044869;28;20022;-78
2023/11/01 04:17:40;;;;;;;6.28;4.18;;;;;;;14.76;66.91;94734.13;5027874;28;20034;-78
2023/11/01 04:20:08;;;;;;;6.45;3.88;;;;;;;14.75;66.85;94740.91;5044119;28;20427;-78
2023/11/01 04:22:39;;;;;;;8.45;5.82;;;;;;;14.75;67.14;94743.66;5026985;28;20033;-79
2023/11/01 04:25:06;;;;;;;8.18;5.45;;;;;;;14.71;67.29;94735.53;5044106;28;20037;-78
2023/11/01 04:27:41;;;;;;;10.27;6.95;;;;;;;14.61;67.70;94748.63;5044659;28;20022;-78
2023/11/01 04:30:08;;;;;;;8.23;5.05;;;;;;;14.56;67.46;94734.66;5043026;28;20476;-78
2023/11/01 04:32:36;;;;;;;8.00;4.65;;;;;;;14.54;67.61;94742.66;5028345;28;20073;-77
2023/11/01 04:35:03;;;;;;;11.38;7.22;;;;;;;14.49;67.75;94743.31;5043418;28;20113;-78
2023/11/01 04:37:29;;;;;;;14.00;8.15;;;;;;;14.47;67.46;94748.53;5029401;28;20088;-78
2023/11/01 04:39:56;;;;;;;11.73;6.93;;;;;;;14.43;66.92;94737.59;5026897;28;20033;-78
2023/11/01 04:42:22;;;;;;;8.50;5.80;;;;;;;14.42;67.05;94743.63;5043657;28;20041;-77
2023/11/01 04:44:47;;;;;;;11.98;6.20;;;;;;;14.39;67.32;94741.78;5042782;28;20021;-78
2023/11/01 04:47:13;;;;;;;6.60;5.35;;;;;;;14.30;67.24;94735.03;5027438;28;20059;-78
2023/11/01 04:49:38;;;;;;;9.63;5.00;;;;;;;14.26;67.30;94737.22;5043874;28;20036;-77
2023/11/01 04:52:06;;;;;;;11.80;4.88;;;;;;;14.22;67.37;94744.91;5042828;28;20515;-80
2023/11/01 04:54:33;;;;;;;6.25;4.53;;;;;;;14.19;67.57;94739.53;5029076;28;20025;-78
2023/11/01 04:57:01;;;;;;;7.03;4.55;;;;;;;14.21;67.46;94748.13;5042881;28;20537;-78
2023/11/01 04:59:29;;;;;;;9.43;5.30;;;;;;;14.11;67.77;94749.38;5027141;28;20405;-79
2023/11/01 05:01:54;;;;;;;8.15;5.45;;;;;;;14.13;68.12;94758.75;5043431;28;20032;-79
2023/11/01 05:04:19;;;;;;;9.57;5.30;;;;;;;14.12;67.94;94750.94;5043144;28;20026;-79
2023/11/01 05:06:45;;;;;;;11.43;5.68;;;;;;;14.15;67.89;94761.03;5027100;28;20571;-79
2023/11/01 05:09:12;;;;;;;7.25;4.95;;;;;;;14.07;68.27;94760.59;5026270;28;20021;-78
2023/11/01 05:11:38;;;;;;;11.57;4.63;;;;;;;14.02;68.32;94762.00;5027272;28;20037;-77
2023/11/01 05:14:03;;;;;;;9.02;5.57;;;;;;;13.97;68.40;94772.91;5042201;28;20034;-78
2023/11/01 05:16:29;;;;;;;8.73;5.50;;;;;;;14.01;68.37;94777.03;5027032;28;20021;-78
2023/11/01 05:18:55;;;;;;;7.95;4.97;;;;;;;13.99;68.40;94787.81;5042683;28;20060;-78
2023/11/01 05:21:20;;;;;;;10.25;5.20;;;;;;;14.00;68.36;94800.38;5042037;28;20107;-78
2023/11/01 05:23:46;;;;;;;11.30;5.40;;;;;;;13.97;68.34;94790.25;5026570;28;20025;-79
2023/11/01 05:26:16;;;;;;;7.82;5.15;;;;;;;13.90;68.58;94801.63;5042383;28;20104;-79
2023/11/01 05:28:42;;;;;;;7.72;4.53;;;;;;;13.90;68.71;94804.38;5043883;28;20033;-79
2023/11/01 05:31:08;;;;;;;8.38;5.80;;;;;;;13.88;68.71;94812.38;5041833;28;20021;-79
2023/11/01 05:33:33;;;;;;;8.65;5.28;;;;;;;13.92;68.48;94818.50;5026896;28;20071;-79
2023/11/01 05:35:59;;;;;;;7.47;5.38;;;;;;;13.93;68.58;94816.50;5027090;28;20104;-79
2023/11/01 05:38:25;;;;;;;6.00;5.07;;;;;;;13.92;68.54;94821.25;5026337;28;20025;-78
2023/11/01 05:40:51;;;;;;;7.55;5.13;;;;;;;13.91;68.81;94825.25;5027351;28;20113;-80
2023/11/01 05:43:16;;;;;;;11.50;6.95;;;;;;;13.93;68.80;94817.25;5025556;28;20611;-78
2023/11/01 05:45:42;;;;;;;8.15;6.32;;;;;;;13.87;68.89;94821.88;5035007;28;20032;-80
2023/11/01 05:48:10;;;;;;;9.13;6.15;;;;;;;13.90;68.96;94823.72;5044745;28;20078;-80
2023/11/01 05:50:36;;;;;;;9.75;6.40;;;;;;;13.94;68.76;94818.06;5046457;28;20036;-80
2023/11/01 05:53:09;;;;;;;8.63;6.10;;;;;;;13.93;68.92;94822.03;5046126;28;20021;-81
2023/11/01 05:55:36;;;;;;;13.63;8.05;;;;;;;13.97;68.70;94840.00;5062104;28;20036;-80
2023/11/01 05:58:02;;;;;;;13.32;9.27;;;;;;;13.99;68.73;94837.56;5045512;28;20040;-80
2023/11/01 06:00:27;;;;;;;13.68;10.07;;;;;;;13.97;68.84;94831.69;5045431;28;20029;-81
2023/11/01 06:02:53;;;;;;;13.50;9.50;;;;;;;14.02;68.05;94833.09;5062645;28;20082;-80
2023/11/01 06:05:21;;;;;;;13.15;10.05;;;;;;;14.03;67.88;94834.63;5044652;28;20427;-78
2023/11/01 06:07:47;;;;;;;10.82;6.82;;;;;;;14.04;67.52;94833.38;5063000;28;20017;-78
2023/11/01 06:10:13;;;;;;;10.65;6.00;;;;;;;14.07;67.29;94840.75;5046056;28;20167;-78
2023/11/01 06:12:38;;;;;;;9.40;5.35;;;;;;;14.12;67.24;94836.63;5061753;28;20087;-77
2023/11/01 06:15:04;;;;;;;10.63;5.72;;;;;;;14.13;67.40;94844.44;5060750;28;20032;-78
2023/11/01 06:17:30;;;;;;;9.35;4.85;;;;;;;14.12;67.11;94842.91;5061986;28;20024;-78
2023/11/01 06:19:55;;;;;;;8.27;4.85;;;;;;;14.12;67.46;94844.91;5046983;28;20051;-77
2023/11/01 06:22:20;;;;;;;7.65;5.30;;;;;;;14.13;67.20;94838.16;5027937;28;20586;-78
2023/11/01 06:24:46;;;;;;;9.65;4.45;;;;;;;14.13;67.39;94841.69;5062908;28;20652;-78
2023/11/01 06:27:12;;;;;;;7.60;4.57;;;;;;;14.18;67.07;94843.06;5060745;28;20480;-77
2023/11/01 06:29:42;;;;;;;6.13;4.20;;;;;;;14.25;66.88;94853.78;5046090;28;20097;-78
2023/11/01 06:32:08;;;;;;;8.13;4.38;;;;;;;14.25;66.87;94851.03;5044426;28;20025;-78
2023/11/01 06:34:33;;;;;;;7.35;5.07;;;;;;;14.29;67.14;94859.94;5062102;28;20024;-76
2023/11/01 06:36:59;;;;;;;9.50;4.90;;;;;;;14.37;67.09;94857.63;5045314;28;20101;-77
2023/11/01 06:39:24;;;;;;;7.50;4.75;;;;;;;14.40;66.72;94849.19;5045950;28;20033;-77
2023/11/01 06:41:49;;;;;;;8.90;4.32;;;;;;;14.48;66.77;94847.63;5062124;28;20096;-78
2023/11/01 06:44:15;;;;;;;9.32;4.82;;;;;;;14.54;66.58;94858.84;5060686;28;20033;-78
2023/11/01 06:46:40;;;;;;;8.63;4.63;;;;;;;14.57;66.76;94855.16;5045947;28;20368;-78
2023/11/01 06:49:05;;;;;;;8.52;4.22;;;;;;;14.69;66.03;94851.44;5025408;28;20029;-78
2023/11/01 06:51:31;;;;;;;9.18;4.65;;;;;;;14.78;65.78;94870.00;5042155;28;20025;-76
2023/11/01 06:53:56;;;;;;;7.90;4.22;;;;;;;14.86;65.53;94868.44;5025988;28;20510;-78
2023/11/01 06:56:22;;;;;;;10.48;5.53;;;;;;;14.93;65.36;94862.56;5024855;28;20044;-78
2023/11/01 06:58:47;;;;;;;7.60;4.72;;;;;;;15.02;65.18;94864.53;5042061;28;20022;-76
2023/11/01 07:01:12;;;;;;;9.50;5.20;;;;;;;15.09;64.83;94867.75;5025475;28;20057;-77
2023/11/01 07:03:38;;;;;;;7.82;4.82;;;;;;;15.20;64.67;94874.78;5025166;28;20131;-80
2023/11/01 07:06:04;;;;;;;8.30;4.30;;;;;;;15.28;64.34;94870.44;5023836;28;20048;-77
2023/11/01 07:08:29;;;;;;;9.57;5.47;;;;;;;15.40;64.00;94872.97;5041782;28;20435;-78
2023/11/01 07:10:55;;;;;;;7.18;5.03;;;;;;;15.51;63.68;94885.53;5040622;28;20028;-78
2023/11/01 07:13:20;;;;;;;10.00;5.15;;;;;;;15.61;63.46;94878.72;5041296;28;20025;-76
2023/11/01 07:15:46;;;;;;;8.35;4.65;;;;;;;15.74;62.99;94878.50;5041010;28;20513;-77
2023/11/01 07:18:12;;;;;;;10.80;4.45;;;;;;;15.80;62.96;94887.72;5040752;28;20033;-78
2023/11/01 07:20:38;;;;;;;10.10;5.22;;;;;;;15.99;62.62;94889.09;5024544;28;20039;-79
2023/11/01 07:23:04;;;;;;;9.30;5.07;;;;;;;16.23;62.10;94891.88;5023790;28;20116;-79
2023/11/01 07:25:29;;;;;;;16.70;6.60;;;;;;;16.42;61.39;94886.91;5041557;28;20108;-79
2023/11/01 07:27:55;;;;;;;8.35;4.70;;;;;;;16.60;60.75;94881.19;5023614;28;20124;-78
2023/11/01 07:30:21;;;;;;;9.68;6.00;;;;;;;16.75;59.76;94880.47;5024810;28;20109;-78
2023/11/01 07:32:47;;;;;;;12.15;7.22;;;;;;;17.08;58.78;94892.13;5023636;28;20090;-78
2023/11/01 07:35:12;;;;;;;10.68;6.47;;;;;;;17.33;58.43;94887.22;5040735;28;20470;-78
2023/11/01 07:37:37;;;;;;;11.68;5.00;;;;;;;17.67;57.54;94894.78;5024257;28;20017;-78
2023/11/01 07:40:03;;;;;;;8.60;4.93;;;;;;;18.08;56.18;94896.84;5023626;28;20033;-79
2023/11/01 07:42:29;;;;;;;9.85;3.85;;;;;;;18.47;54.92;94894.53;5024076;28;20125;-78
2023/11/01 07:44:54;;;;;;;14.55;3.85;;;;;;;19.03;53.54;94906.22;5024959;28;20029;-78
2023/11/01 07:47:20;;;;;;;7.03;3.75;;;;;;;19.35;52.58;94907.75;5046119;28;20028;-79
2023/11/01 07:49:45;;;;;;;6.18;3.60;;;;;;;19.48;52.07;94912.91;5044698;28;20115;-79
2023/11/01 07:52:10;;;;;;;9.05;3.63;;;;;;;19.46;51.83;94917.47;5051668;28;20033;-78
2023/11/01 07:54:36;;;;;;;9.43;4.00;;;;;;;19.48;51.98;94903.78;5024946;28;20021;-79
2023/11/01 07:57:02;;;;;;;8.75;4.38;;;;;;;19.58;51.69;94914.28;5024031;28;20477;-78
2023/11/01 07:59:27;;;;;;;7.82;4.07;;;;;;;19.95;51.33;94910.69;5040501;28;20099;-78
2023/11/01 08:01:54;;;;;;;10.52;5.30;;;;;;;19.85;51.18;94917.78;5040042;28;20029;-79
2023/11/01 08:04:20;;;;;;;10.90;4.80;;;;;;;19.83;51.41;94925.84;5024304;28;20029;-79
2023/11/01 08:06:46;;;;;;;10.82;4.68;;;;;;;19.82;51.29;94924.31;5024005;28;20486;-79
2023/11/01 08:09:11;;;;;;;9.77;4.60;;;;;;;19.90;50.74;94928.19;5025848;28;20040;-77
2023/11/01 08:11:37;;;;;;;8.40;3.85;;;;;;;19.86;51.25;94922.84;5022863;28;20030;-79
2023/11/01 08:14:03;;;;;;;11.63;4.35;;;;;;;21.63;47.44;94925.13;5024075;28;20116;-79
2023/11/01 08:16:29;;;;;;;11.23;4.78;;;;;;;22.20;45.80;94928.59;5039787;28;20064;-79
2023/11/01 08:18:58;;;;;;;9.75;4.80;;;;;;;23.13;43.39;94938.34;5023403;28;20045;-82
2023/11/01 08:21:24;;;;;;;9.93;4.50;;;;;;;23.09;43.13;94941.44;5007556;28;20110;-75
2023/11/01 08:23:49;;;;;;;9.68;4.93;;;;;;;22.55;44.22;94944.75;5024497;28;20021;-78
2023/11/01 08:26:19;;;;;;;10.73;5.60;;;;;;;22.18;44.76;94956.31;5026050;28;20022;-78
2023/11/01 08:28:44;;;;;;;11.40;4.85;;;;;;;21.85;45.26;94962.72;5022734;28;20033;-75
2023/11/01 08:31:10;;;;;;;7.32;4.85;;;;;;;21.43;46.63;94965.28;5008164;28;20033;-78
2023/11/01 08:33:36;;;;;;;10.07;4.15;;;;;;;21.58;47.14;94972.66;5039709;28;20030;-77
2023/11/01 08:36:02;;;;;;;7.90;4.05;;;;;;;21.15;48.30;94972.84;5023951;28;20400;-78
2023/11/01 08:38:27;;;;;;;9.27;5.10;;;;;;;20.76;49.71;94979.13;5023436;28;20466;-79
2023/11/01 08:40:54;;;;;;;9.90;4.65;;;;;;;20.52;50.23;94979.50;5039705;28;20029;-80
2023/11/01 08:43:20;;;;;;;8.20;4.22;;;;;;;20.16;51.05;94979.06;5007122;28;20429;-78
2023/11/01 08:45:45;;;;;;;9.48;4.53;;;;;;;20.03;51.53;94981.53;5030903;28;20111;-79
2023/11/01 08:48:12;;;;;;;13.85;4.93;;;;;;;20.10;51.29;94977.50;5060876;28;20432;-79
2023/11/01 08:50:39;;;;;;;6.60;3.10;;;;;;;21.77;46.23;94981.28;5026216;28;20207;-79
2023/11/01 08:53:05;;;;;;;5.00;3.20;;;;;;;23.24;43.33;94980.34;5027407;28;20133;-79
2023/11/01 08:55:31;;;;;;;6.03;4.22;;;;;;;24.50;40.64;94983.88;5044520;28;20065;-77
2023/11/01 08:57:56;;;;;;;6.43;3.13;;;;;;;25.50;37.65;94978.22;5063472;28;20454;-78
2023/11/01 09:00:22;;;;;;;5.45;2.22;;;;;;;26.03;36.06;94972.78;5048857;28;20028;-77
2023/11/01 09:02:47;;;;;;;6.45;2.83;;;;;;;26.82;34.32;94989.00;5047473;28;20029;-78
2023/11/01 09:05:13;;;;;;;4.32;2.60;;;;;;;27.46;33.40;94987.91;5064454;28;20491;-78
2023/11/01 09:07:39;;;;;;;4.53;2.55;;;;;;;28.20;31.89;94996.19;5062296;28;20024;-78
2023/11/01 09:10:07;;;;;;;5.97;3.00;;;;;;;28.08;31.70;94998.53;5030891;28;20400;-79
2023/11/01 09:12:33;;;;;;;5.30;2.47;;;;;;;26.78;33.96;94997.03;5045612;28;20110;-78
2023/11/01 09:14:59;;;;;;;4.30;3.08;;;;;;;26.33;34.31;94999.94;5010295;28;20495;-78
2023/11/01 09:17:24;;;;;;;6.10;3.40;;;;;;;26.60;33.39;95004.31;5043619;28;20041;-78
2023/11/01 09:19:50;;;;;;;4.28;3.28;;;;;;;25.75;34.80;95012.69;5042403;28;20061;-79
2023/11/01 09:22:16;;;;;;;9.48;5.70;;;;;;;25.00;36.05;95004.97;5027384;28;20057;-79
2023/11/01 09:24:42;;;;;;;5.70;4.40;;;;;;;24.10;37.30;95003.16;5009109;28;20069;-78
2023/11/01 09:27:07;;;;;;;6.57;4.38;;;;;;;23.55;38.52;95007.91;5027311;28;20104;-78
2023/11/01 09:29:33;;;;;;;5.88;5.00;;;;;;;22.93;39.62;95007.50;5025704;28;20036;-78
2023/11/01 09:31:59;;;;;;;6.57;5.38;;;;;;;22.24;41.28;95011.03;5043368;28;20021;-79
2023/11/01 09:34:24;;;;;;;6.65;5.50;;;;;;;22.42;40.85;95003.34;5027773;28;20030;-78
2023/11/01 09:36:50;;;;;;;9.32;5.63;;;;;;;22.06;41.60;94999.59;5024647;28;20030;-79
2023/11/01 09:39:15;;;;;;;7.15;5.75;;;;;;;22.12;41.92;94992.72;5043407;28;20042;-80
2023/11/01 09:41:50;;;;;;;7.18;5.53;;;;;;;22.95;39.95;94984.59;5026918;28;20036;-80
2023/11/01 09:44:17;;;;;;;8.27;5.45;;;;;;;22.80;40.93;94982.84;5026955;28;20037;-79
2023/11/01 09:46:43;;;;;;;6.15;5.10;;;;;;;23.28;39.84;94992.03;5025084;28;20507;-78
2023/11/01 09:49:08;;;;;;;9.43;4.90;;;;;;;23.95;38.37;94985.94;5063427;28;20070;-78
2023/11/01 09:51:34;;;;;;;5.80;4.65;;;;;;;24.39;36.83;94994.47;5045584;28;20025;-77
2023/11/01 09:54:21;;;;;;;7.63;4.80;;;;;;;24.64;36.21;94993.16;5045720;28;20601;-78
2023/11/01 09:56:46;;;;;;;5.10;3.97;;;;;;;25.79;33.76;94967.31;5046268;28;20029;-78
2023/11/01 09:59:12;;;;;;;5.35;4.43;;;;;;;27.43;31.21;94978.50;5045070;28;20021;-77
2023/11/01 10:01:39;;;;;;;6.40;4.38;;;;;;;28.29;29.89;94971.00;5046563;28;20108;-77
2023/11/01 10:04:06;;;;;;;4.90;3.30;;;;;;;29.42;28.17;94976.34;5062447;28;20065;-77
2023/11/01 10:06:33;;;;;;;5.25;3.75;;;;;;;30.15;27.09;94963.47;5046030;28;20025;-80
2023/11/01 10:08:59;;;;;;;6.82;3.22;;;;;;;28.75;28.43;94964.91;5061958;28;20104;-87
2023/11/01 10:11:25;;;;;;;6.07;2.97;;;;;;;30.33;26.67;94962.31;5047629;28;20036;-79
2023/11/01 10:13:51;;;;;;;5.15;3.25;;;;;;;31.32;25.21;94961.38;5041299;28;20017;-79
2023/11/01 10:16:16;;;;;;;4.50;2.80;;;;;;;31.82;24.01;94950.09;5052718;28;20032;-80
2023/11/01 10:18:42;;;;;;;5.05;3.53;;;;;;;32.24;23.54;94955.09;5026537;28;20049;-79
2023/11/01 10:21:08;;;;;;;5.10;3.10;;;;;;;32.73;22.77;94959.97;5024555;28;20036;-78
2023/11/01 10:23:35;;;;;;;4.88;2.90;;;;;;;33.61;22.06;94961.44;5036709;28;20059;-78
2023/11/01 10:26:04;;;;;;;4.70;2.63;;;;;;;33.84;21.49;94955.41;5053543;28;20025;-77
2023/11/01 10:28:33;;;;;;;3.95;3.08;;;;;;;34.27;21.01;94953.78;5042679;28;20420;-78
2023/11/01 10:30:58;;;;;;;4.57;2.90;;;;;;;34.23;20.36;94942.06;5008966;28;20083;-78
2023/11/01 10:33:27;;;;;;;3.85;2.75;;;;;;;34.87;19.83;94944.78;5041740;28;20078;-78
2023/11/01 10:35:59;;;;;;;7.85;2.83;;;;;;;35.37;19.62;94944.16;5042470;28;20523;-76
2023/11/01 10:38:30;;;;;;;4.97;3.20;;;;;;;35.73;19.38;94951.81;5024611;28;20032;-78
2023/11/01 10:41:00;;;;;;;4.68;3.13;;;;;;;35.99;18.80;94950.06;5042240;28;20034;-77
2023/11/01 10:43:29;;;;;;;3.40;2.53;;;;;;;36.12;18.51;94952.44;5020301;28;20030;-80
2023/11/01 10:46:02;;;;;;;4.15;2.25;;;;;;;36.15;18.43;94956.19;5051876;28;20029;-78
2023/11/01 10:48:28;;;;;;;3.75;3.08;;;;;;;36.84;17.69;94948.75;5061919;28;20111;-79
2023/11/01 10:50:56;;;;;;;4.50;3.28;;;;;;;36.81;17.45;94942.13;5044215;28;20495;-78
2023/11/01 10:53:25;;;;;;;4.10;2.65;;;;;;;36.72;17.39;94940.09;5035664;28;20492;-78
2023/11/01 10:55:53;;;;;;;3.10;2.53;;;;;;;36.95;16.93;94942.34;5039498;28;20460;-81
2023/11/01 10:58:24;;;;;;;4.72;3.00;;;;;;;37.52;16.81;94943.25;5042804;28;20057;-79
2023/11/01 11:01:11;;;;;;;4.47;2.97;;;;;;;37.84;16.09;94938.09;5024598;28;20033;-79
2023/11/01 11:03:59;;;;;;;4.57;2.50;;;;;;;38.62;15.73;94937.88;5024714;28;20127;-79
2023/11/01 11:06:35;;;;;;;3.97;2.22;;;;;;;37.63;15.83;94919.59;5025526;28;20105;-79
2023/11/01 11:09:23;;;;;;;4.15;2.40;;;;;;;38.35;15.38;94918.28;5023672;28;20021;-78
2023/11/01 11:12:14;;;;;;;5.05;3.05;;;;;;;39.01;15.42;94927.31;5008982;28;20057;-79
2023/11/01 11:14:51;;;;;;;3.85;2.40;;;;;;;39.24;14.99;94911.38;5041613;28;20025;-79
2023/11/01 11:17:23;;;;;;;5.00;3.33;;;;;;;38.91;14.87;94931.72;5023371;28;20503;-79
2023/11/01 11:20:10;;;;;;;3.95;2.92;;;;;;;39.52;14.24;94929.50;5025831;28;20053;-79
2023/11/01 11:22:58;;;;;;;5.28;3.30;;;;;;;39.34;14.64;94925.56;5024217;28;20025;-79
2023/11/01 11:25:38;;;;;;;3.40;2.70;;;;;;;39.14;14.67;94931.63;5025483;28;20104;-79
2023/11/01 11:28:08;;;;;;;3.95;2.83;;;;;;;37.99;15.56;94929.00;5026279;28;20018;-79
2023/11/01 11:31:05;;;;;;;6.65;2.97;;;;;;;37.69;15.76;94919.97;5039985;28;20123;-81